Time;durP1;ratioP1;P1;durP2;ratioP2;P2;SDS_P1;SDS_P2;PMS_P1;PMS_P2;Temp;Humidity;BMP_temperature;BMP_pressure;BME280_temperature;BME280_humidity;BME280_pressure;Samples;Min_cycle;Max_cycle;Signal;HPM_P1;HPM_P2
2022/05/18 00:01:24;;;;;;;2.70;1.10;;;;;;;8.28;50.24;101578.66;3465367;83;98933;-87
2022/05/18 00:06:25;;;;;;;3.93;1.10;;;;;;;8.22;50.66;101581.92;3497146;83;98572;-87
2022/05/18 00:11:26;;;;;;;1.53;0.93;;;;;;;8.10;50.89;101586.75;3509128;82;98692;-87
2022/05/18 00:16:27;;;;;;;4.90;1.00;;;;;;;8.02;50.96;101595.81;3487789;84;98564;-88
2022/05/18 00:21:30;;;;;;;2.27;1.00;;;;;;;7.96;51.02;101588.13;3491538;83;98603;-87
2022/05/18 00:26:31;;;;;;;4.17;1.10;;;;;;;7.87;51.40;101590.92;3515763;82;98429;-87
2022/05/18 00:31:32;;;;;;;3.57;0.80;;;;;;;7.77;51.45;101588.55;3481866;83;98902;-89
2022/05/18 00:36:33;;;;;;;3.63;0.90;;;;;;;7.70;52.75;101606.64;3455442;84;98360;-87
2022/05/18 00:41:34;;;;;;;5.20;1.13;;;;;;;7.62;51.75;101611.02;3451917;83;98785;-87
2022/05/18 00:46:36;;;;;;;3.00;1.13;;;;;;;7.56;51.79;101615.63;3458130;84;35116;-88
2022/05/18 00:51:41;;;;;;;3.10;0.90;;;;;;;7.39;52.25;101608.28;3478783;83;98679;-87
2022/05/18 00:56:59;;;;;;;5.27;1.30;;;;;;;7.40;52.37;101630.43;3463545;83;98456;-87
2022/05/18 01:02:02;;;;;;;3.33;1.22;;;;;;;7.33;52.55;101634.80;3463911;83;98540;-87
2022/05/18 01:07:12;;;;;;;4.17;1.00;;;;;;;7.26;52.51;101639.39;3448830;84;98442;-87
2022/05/18 01:12:20;;;;;;;3.05;1.10;;;;;;;7.21;52.90;101651.88;3478794;84;98618;-88
2022/05/18 01:17:26;;;;;;;7.53;1.20;;;;;;;7.08;54.29;101657.53;3499990;83;32219;-88
2022/05/18 01:23:10;;;;;;;3.77;1.20;;;;;;;7.00;53.34;101661.09;3469332;83;98763;-88
2022/05/18 01:28:12;;;;;;;3.65;1.20;;;;;;;6.93;53.22;101656.10;3412866;84;98716;-88
2022/05/18 01:33:17;;;;;;;3.40;0.97;;;;;;;6.83;53.76;101660.52;3455960;84;98687;-88
2022/05/18 01:38:18;;;;;;;2.75;1.30;;;;;;;6.72;54.10;101663.92;3470479;83;98462;-87
2022/05/18 01:43:37;;;;;;;5.23;1.20;;;;;;;6.59;54.21;101658.84;3470845;83;98670;-87
2022/05/18 01:48:42;;;;;;;4.72;1.65;;;;;;;6.51;54.74;101666.48;3503083;82;98608;-87
2022/05/18 01:53:43;;;;;;;3.07;1.17;;;;;;;6.44;55.68;101672.97;3415216;85;98933;-87
2022/05/18 01:58:46;;;;;;;3.70;1.50;;;;;;;6.35;55.31;101678.18;3458217;84;25850;-87
2022/05/18 02:03:48;;;;;;;6.28;1.20;;;;;;;6.29;55.02;101675.36;3439136;82;98746;-87
2022/05/18 02:08:49;;;;;;;5.37;1.27;;;;;;;6.23;55.51;101680.73;3494837;84;98934;-87
2022/05/18 02:13:51;;;;;;;6.27;1.43;;;;;;;6.13;55.82;101684.56;3463096;83;98705;-87
2022/05/18 02:18:52;;;;;;;3.70;1.20;;;;;;;6.05;55.84;101682.59;3476840;83;98423;-87
2022/05/18 02:23:53;;;;;;;5.10;1.30;;;;;;;5.97;56.38;101690.77;3487667;83;98598;-87
2022/05/18 02:28:54;;;;;;;5.20;1.33;;;;;;;5.87;56.51;101693.22;3496810;83;25828;-87
2022/05/18 02:33:55;;;;;;;5.42;2.27;;;;;;;5.75;57.55;101697.63;3463939;82;98303;-87
2022/05/18 02:38:56;;;;;;;9.37;2.03;;;;;;;5.66;57.74;101697.59;3461875;83;98272;-87
2022/05/18 02:44:00;;;;;;;5.37;1.50;;;;;;;5.57;58.48;101703.55;3475095;83;98889;-88
2022/05/18 02:49:01;;;;;;;5.27;2.20;;;;;;;5.50;58.05;101707.29;3489432;83;98848;-88
2022/05/18 02:56:05;;;;;;;5.47;1.77;;;;;;;5.49;58.23;101713.05;3479596;83;98614;-88
2022/05/18 02:59:04;;;;;;;6.50;2.00;;;;;;;5.43;58.16;101706.93;3476394;83;31803;-87
2022/05/18 03:04:05;;;;;;;5.33;1.70;;;;;;;5.39;58.15;101714.67;3489214;82;98279;-87
2022/05/18 03:09:07;;;;;;;4.63;2.07;;;;;;;5.33;58.35;101720.83;3470374;83;98387;-87
2022/05/18 03:14:08;;;;;;;4.47;1.90;;;;;;;5.27;58.94;101722.63;3477813;83;98538;-87
2022/05/18 03:19:09;;;;;;;7.43;2.53;;;;;;;5.17;59.40;101726.95;3482079;83;98571;-88
2022/05/18 03:24:10;;;;;;;3.97;1.50;;;;;;;5.13;59.51;101730.08;3495682;83;98556;-87
2022/05/18 03:29:12;;;;;;;6.30;1.97;;;;;;;5.07;59.96;101730.73;3452891;83;36059;-87
2022/05/18 03:34:14;;;;;;;6.27;2.30;;;;;;;5.04;59.67;101731.91;3473515;82;98413;-88
2022/05/18 03:39:15;;;;;;;4.47;1.70;;;;;;;5.02;59.72;101745.07;3423239;85;98418;-87
2022/05/18 03:44:17;;;;;;;6.03;1.80;;;;;;;5.00;59.62;101746.73;3473906;83;98823;-87
2022/05/18 03:49:18;;;;;;;5.03;1.70;;;;;;;4.96;60.55;101747.09;3470877;83;98557;-87
2022/05/18 03:54:18;;;;;;;5.10;1.63;;;;;;;4.95;60.71;101755.58;3476819;83;98503;-87
2022/05/18 03:59:19;;;;;;;4.47;1.40;;;;;;;4.94;60.95;101762.16;3481899;83;34892;-87
2022/05/18 04:04:20;;;;;;;4.67;1.37;;;;;;;4.95;61.47;101771.41;3448475;83;98448;-86
2022/05/18 04:09:21;;;;;;;5.03;1.60;;;;;;;4.98;61.13;101779.53;3479617;83;98770;-87
2022/05/18 04:14:22;;;;;;;5.43;1.63;;;;;;;5.01;61.63;101784.36;3466243;83;98551;-86
2022/05/18 04:19:23;;;;;;;5.60;1.53;;;;;;;5.04;61.69;101789.22;3494328;83;98578;-87
2022/05/18 04:24:24;;;;;;;5.83;2.08;;;;;;;5.07;62.31;101785.31;3456854;83;98063;-87
2022/05/18 04:29:25;;;;;;;7.63;2.07;;;;;;;5.15;63.24;101797.42;3407552;85;25919;-87
2022/05/18 04:34:26;;;;;;;6.90;2.30;;;;;;;5.26;63.41;101795.53;3486756;83;98720;-87
2022/05/18 04:39:27;;;;;;;7.97;2.40;;;;;;;5.35;63.98;101791.50;3463392;83;98477;-85
2022/05/18 04:44:28;;;;;;;6.03;2.00;;;;;;;5.46;63.33;101804.59;3478183;83;98587;-85
2022/05/18 04:49:30;;;;;;;4.13;1.60;;;;;;;5.55;64.82;101797.28;3439595;83;98477;-86
2022/05/18 04:54:31;;;;;;;5.63;1.50;;;;;;;5.68;63.32;101803.80;3436722;83;98547;-87
2022/05/18 04:59:32;;;;;;;12.77;3.37;;;;;;;5.83;63.15;101802.09;3486665;83;98483;-85
2022/05/18 05:04:35;;;;;;;7.57;2.10;;;;;;;6.01;64.00;101818.25;3443119;84;98951;-86
2022/05/18 05:09:37;;;;;;;8.70;2.10;;;;;;;6.22;63.05;101822.64;3445471;83;98364;-86
2022/05/18 05:14:40;;;;;;;6.45;2.15;;;;;;;6.39;62.81;101827.61;3469030;82;98500;-86
2022/05/18 05:19:41;;;;;;;10.00;2.57;;;;;;;6.62;62.47;101815.50;3479175;83;99226;-87
2022/05/18 05:24:43;;;;;;;7.63;2.40;;;;;;;6.97;62.65;101824.58;3470009;83;98778;-86
2022/05/18 05:29:44;;;;;;;8.17;2.10;;;;;;;7.37;62.10;101807.72;3470829;83;98555;-86
2022/05/18 05:34:45;;;;;;;5.97;1.97;;;;;;;8.15;60.88;101831.17;3411584;85;98290;-81
2022/05/18 05:39:46;;;;;;;7.47;2.03;;;;;;;8.96;58.91;101834.01;3471680;84;98517;-81
2022/05/18 05:44:47;;;;;;;5.17;1.70;;;;;;;9.79;55.94;101824.63;3462382;83;98844;-81
2022/05/18 05:49:48;;;;;;;7.67;2.20;;;;;;;10.72;54.67;101833.81;3480231;83;99016;-81
2022/05/18 05:54:49;;;;;;;6.17;1.97;;;;;;;11.46;52.55;101833.59;3427857;83;98909;-81
2022/05/18 05:59:50;;;;;;;6.83;1.93;;;;;;;12.37;51.10;101836.80;3465225;83;99231;-81
2022/05/18 06:04:51;;;;;;;5.27;1.90;;;;;;;13.23;48.54;101836.00;3484045;83;98650;-81
2022/05/18 06:09:52;;;;;;;7.62;1.95;;;;;;;13.95;47.37;101843.47;3411319;85;98758;-81
2022/05/18 06:14:53;;;;;;;6.15;2.08;;;;;;;14.61;43.78;101855.62;3472631;83;98695;-82
2022/05/18 06:19:54;;;;;;;19.82;3.22;;;;;;;15.26;44.08;101856.47;3456999;84;99328;-82
2022/05/18 06:24:55;;;;;;;5.40;1.17;;;;;;;15.92;42.69;101848.88;3436816;84;98997;-82
2022/05/18 06:29:56;;;;;;;2.20;1.00;;;;;;;16.40;40.62;101853.41;3473057;83;98054;-83
2022/05/18 06:34:57;;;;;;;6.22;1.40;;;;;;;16.56;37.91;101853.36;3458828;83;98765;-82
2022/05/18 06:39:58;;;;;;;7.42;1.40;;;;;;;16.55;37.74;101855.94;3463353;83;98786;-83
2022/05/18 06:45:00;;;;;;;5.28;1.82;;;;;;;16.85;37.00;101857.98;3464154;83;98827;-83
2022/05/18 06:50:03;;;;;;;8.95;1.57;;;;;;;17.22;36.68;101861.44;3466392;83;98918;-83
2022/05/18 06:55:05;;;;;;;7.20;2.05;;;;;;;17.57;35.84;101864.48;3452936;83;98976;-82
2022/05/18 07:00:07;;;;;;;12.23;2.00;;;;;;;17.68;35.69;101864.53;3457447;84;98847;-83
2022/05/18 07:05:09;;;;;;;4.12;1.37;;;;;;;17.95;35.62;101868.05;3396558;85;99154;-82
2022/05/18 07:10:10;;;;;;;2.52;1.37;;;;;;;17.90;34.87;101867.62;3407984;85;99243;-83
2022/05/18 07:15:11;;;;;;;6.83;1.47;;;;;;;18.11;35.33;101865.72;3458556;83;99339;-82
2022/05/18 07:20:12;;;;;;;9.53;1.75;;;;;;;18.26;34.44;101861.76;3490599;82;99345;-83
2022/05/18 07:25:13;;;;;;;2.45;1.05;;;;;;;18.32;34.03;101865.00;3477349;83;98855;-84
2022/05/18 07:30:15;;;;;;;5.42;1.45;;;;;;;18.21;33.82;101862.75;3477796;83;99024;-83
2022/05/18 07:35:17;;;;;;;7.15;1.65;;;;;;;18.20;34.08;101861.16;3454169;83;98434;-83
2022/05/18 07:40:17;;;;;;;6.78;1.45;;;;;;;17.93;33.34;101867.63;3467727;83;98732;-83
2022/05/18 07:45:20;;;;;;;7.08;1.60;;;;;;;17.69;33.73;101861.36;3455367;83;98831;-83
2022/05/18 07:50:24;;;;;;;4.10;1.50;;;;;;;17.58;33.22;101866.08;3473418;83;99306;-83
2022/05/18 07:55:26;;;;;;;3.98;1.22;;;;;;;17.27;32.07;101864.48;3460030;83;99075;-82
2022/05/18 08:00:27;;;;;;;9.25;1.80;;;;;;;17.01;33.93;101867.45;3478693;83;98910;-84
2022/05/18 08:05:30;;;;;;;6.72;1.72;;;;;;;17.23;33.96;101858.08;3475864;83;98586;-82
2022/05/18 08:15:53;;;;;;;4.87;1.35;;;;;;;18.24;33.37;101849.41;3468589;83;98731;-84
2022/05/18 08:20:54;;;;;;;4.75;1.52;;;;;;;19.04;33.30;101851.50;3463449;83;99214;-83
2022/05/18 08:25:56;;;;;;;1.87;1.25;;;;;;;19.85;32.27;101852.13;3474141;83;98822;-83
2022/05/18 08:30:58;;;;;;;10.72;1.62;;;;;;;19.95;30.93;101857.66;3472642;83;99235;-82
2022/05/18 08:36:07;;;;;;;7.42;1.22;;;;;;;20.72;28.61;101852.23;3479043;83;99434;-81
2022/05/18 08:41:28;;;;;;;6.60;1.60;;;;;;;20.62;29.15;101859.51;3475204;83;98661;-83
2022/05/18 08:46:50;;;;;;;6.20;1.62;;;;;;;21.72;30.64;101858.09;3445445;84;98621;-83
2022/05/18 08:52:05;;;;;;;5.33;1.40;;;;;;;22.36;29.72;101860.85;3459287;83;98674;-82
2022/05/18 08:57:17;;;;;;;9.55;1.72;;;;;;;22.87;28.15;101854.27;3470423;83;98817;-83
2022/05/18 09:02:34;;;;;;;8.75;1.60;;;;;;;23.18;29.03;101854.95;3461950;83;98538;-80
2022/05/18 09:07:46;;;;;;;6.67;1.65;;;;;;;23.94;29.52;101855.48;3482275;83;98849;-82
2022/05/18 09:12:50;;;;;;;5.10;1.57;;;;;;;23.76;27.73;101858.45;3472272;83;98813;-83
2022/05/18 09:18:03;;;;;;;5.90;1.50;;;;;;;24.41;27.42;101851.83;3419559;85;99273;-83
2022/05/18 09:24:01;;;;;;;5.90;1.50;;;;;;;25.44;28.40;101853.85;3476191;84;98520;-83
2022/05/18 09:29:30;;;;;;;13.78;1.80;;;;;;;26.06;28.30;101846.86;3483082;83;27404;-82
2022/05/18 09:34:46;;;;;;;9.65;1.95;;;;;;;26.77;26.78;101849.05;3462898;83;99078;-82
2022/05/18 09:40:01;;;;;;;24.10;2.50;;;;;;;27.37;25.65;101846.38;3447863;83;98778;-84
2022/05/18 09:45:17;;;;;;;;;;;;;;;27.87;25.40;101849.79;3476683;82;99565;-83
2022/05/18 09:50:18;;;;;;;6.00;1.30;;;;;;;28.42;22.13;101845.23;3484852;83;85601;-83
2022/05/18 09:55:24;;;;;;;14.83;2.12;;;;;;;28.25;22.96;101841.83;3478860;83;98815;-82
2022/05/18 10:00:29;;;;;;;6.58;1.87;;;;;;;28.27;24.09;101835.71;3473297;83;99071;-82
2022/05/18 10:07:27;;;;;;;5.90;1.57;;;;;;;28.87;24.24;101834.83;3471389;83;98639;-83
2022/05/18 10:11:04;;;;;;;9.20;1.67;;;;;;;29.03;22.78;101833.78;3447679;83;99036;-84
2022/05/18 10:16:18;;;;;;;6.05;1.87;;;;;;;29.29;22.48;101824.52;3413970;85;97940;-84
2022/05/18 10:21:26;;;;;;;5.17;1.60;;;;;;;29.20;22.53;101820.91;3444249;83;99050;-83
2022/05/18 10:26:35;;;;;;;6.92;2.30;;;;;;;29.44;22.79;101811.29;3471829;83;99244;-84
2022/05/18 10:31:42;;;;;;;7.00;1.62;;;;;;;29.66;21.02;101812.55;3456381;83;98915;-84
2022/05/18 10:36:50;;;;;;;6.62;1.65;;;;;;;29.92;22.00;101803.17;3450359;84;98789;-83
2022/05/18 10:41:51;;;;;;;5.12;2.00;;;;;;;29.54;21.19;101800.74;3440653;83;98745;-84
2022/05/18 10:46:53;;;;;;;5.33;1.50;;;;;;;29.55;21.71;101786.70;3475699;83;98593;-84
2022/05/18 10:51:56;;;;;;;4.72;1.35;;;;;;;30.26;21.03;101787.16;3458220;83;99007;-82
2022/05/18 10:57:17;;;;;;;30.37;3.42;;;;;;;30.23;21.34;101779.59;3474425;83;98955;-83
2022/05/18 11:03:07;;;;;;;5.70;1.30;;;;;;;30.01;20.17;101776.80;3479554;83;100152;-84
2022/05/18 11:08:19;;;;;;;6.45;1.50;;;;;;;30.10;19.12;101771.92;3479695;83;99366;-82
2022/05/18 11:13:47;;;;;;;7.37;1.62;;;;;;;29.94;18.59;101765.80;3449894;84;98883;-84
2022/05/18 11:19:00;;;;;;;5.72;1.45;;;;;;;29.72;18.79;101749.62;3425041;85;98828;-84
2022/05/18 11:24:39;;;;;;;8.60;1.75;;;;;;;29.35;19.45;101743.82;3442627;84;98969;-82
2022/05/18 11:30:07;;;;;;;6.53;1.30;;;;;;;29.54;19.96;101734.83;3472995;83;28654;-83
2022/05/18 11:35:17;;;;;;;4.35;1.30;;;;;;;29.84;19.58;101732.39;3474391;83;98730;-81
2022/05/18 11:40:38;;;;;;;5.55;1.42;;;;;;;29.44;15.89;101725.37;3485133;83;98892;-82
2022/05/18 11:45:53;;;;;;;2.92;1.20;;;;;;;28.23;19.08;101725.39;3484401;83;99595;-85
2022/05/18 11:51:38;;;;;;;6.67;1.47;;;;;;;29.26;19.48;101715.49;3480322;83;98808;-82
2022/05/18 11:57:03;;;;;;;7.40;1.60;;;;;;;29.82;20.04;101714.27;3446218;84;99471;-84
2022/05/18 12:03:01;;;;;;;4.70;1.37;;;;;;;30.35;19.65;101703.95;3453249;84;98893;-83
2022/05/18 12:08:28;;;;;;;3.37;1.27;;;;;;;30.49;18.88;101704.63;3319392;86;98878;-84
2022/05/18 12:13:53;;;;;;;4.20;1.65;;;;;;;30.42;19.02;101705.80;3415511;84;99127;-82
2022/05/18 12:19:12;;;;;;;4.97;1.42;;;;;;;29.34;18.29;101700.51;3446158;84;98989;-84
2022/05/18 12:24:15;;;;;;;5.20;1.20;;;;;;;29.61;19.08;101700.47;3425878;84;99078;-82
2022/05/18 12:29:21;;;;;;;10.45;1.60;;;;;;;29.36;18.46;101690.87;3447169;84;99116;-82
2022/05/18 12:34:36;;;;;;;5.62;1.35;;;;;;;29.45;17.59;101695.13;3474946;83;98958;-84
2022/05/18 12:39:49;;;;;;;7.30;1.57;;;;;;;29.30;18.57;101691.36;3426828;83;98980;-84
2022/05/18 12:45:04;;;;;;;3.77;1.50;;;;;;;29.13;18.29;101689.34;3426960;85;99204;-86
